createdAt,value
2022-11-13T00:00:01.437Z,5.70
2022-11-13T00:01:01.434Z,5.74
2022-11-13T00:02:01.427Z,5.75
2022-11-13T00:03:01.498Z,5.71
2022-11-13T00:04:01.391Z,5.64
2022-11-13T00:05:01.398Z,5.55
2022-11-13T00:06:01.374Z,5.56
2022-11-13T00:07:01.419Z,5.57
2022-11-13T00:08:01.379Z,5.66
2022-11-13T00:09:01.370Z,5.64
2022-11-13T00:10:01.364Z,5.53
2022-11-13T00:11:01.353Z,5.50
2022-11-13T00:12:01.342Z,5.35
2022-11-13T00:13:01.351Z,5.37
2022-11-13T00:14:01.342Z,5.31
2022-11-13T00:15:01.336Z,5.30
2022-11-13T00:16:01.319Z,5.45
2022-11-13T00:17:01.324Z,5.56
2022-11-13T00:18:01.301Z,5.56
2022-11-13T00:19:01.290Z,5.38
2022-11-13T00:20:01.307Z,5.43
2022-11-13T00:21:01.299Z,5.35
2022-11-13T00:22:01.286Z,5.38
2022-11-13T00:23:01.311Z,5.48
2022-11-13T00:24:01.940Z,5.40
2022-11-13T00:25:01.368Z,5.38
2022-11-13T00:26:01.295Z,5.34
2022-11-13T00:27:02.812Z,5.32
2022-11-13T00:28:01.249Z,5.27
2022-11-13T00:29:01.960Z,5.19
2022-11-13T00:30:01.229Z,5.13
2022-11-13T00:31:01.246Z,5.13
2022-11-13T00:32:01.239Z,5.10
2022-11-13T00:33:01.256Z,5.20
2022-11-13T00:34:19.633Z,5.31
2022-11-13T00:35:03.189Z,5.34
2022-11-13T00:36:01.222Z,5.40
2022-11-13T00:37:01.207Z,5.31
2022-11-13T00:38:01.208Z,5.25
2022-11-13T00:39:01.209Z,5.10
2022-11-13T00:40:01.169Z,5.12
2022-11-13T00:41:01.277Z,5.30
2022-11-13T00:42:01.182Z,5.28
2022-11-13T00:43:01.179Z,5.22
2022-11-13T00:44:01.149Z,5.31
2022-11-13T00:45:01.136Z,5.20
2022-11-13T00:46:01.159Z,5.19
2022-11-13T00:47:01.130Z,5.12
2022-11-13T00:48:01.134Z,5.05
2022-11-13T00:49:01.185Z,5.25
2022-11-13T00:50:01.137Z,5.32
2022-11-13T00:51:01.127Z,5.38
2022-11-13T00:52:01.119Z,5.41
2022-11-13T00:53:01.096Z,5.48
2022-11-13T00:54:01.123Z,5.48
2022-11-13T00:55:01.108Z,5.50
2022-11-13T00:56:01.084Z,5.56
2022-11-13T00:57:01.158Z,5.57
2022-11-13T00:58:01.091Z,5.67
2022-11-13T00:59:01.063Z,5.66
2022-11-13T01:00:01.064Z,5.73
2022-11-13T01:01:01.047Z,5.64
2022-11-13T01:02:01.067Z,5.73
2022-11-13T01:03:01.032Z,5.71
2022-11-13T01:04:01.045Z,5.73
2022-11-13T01:05:01.050Z,5.68
2022-11-13T01:06:01.009Z,5.75
2022-11-13T01:07:01.117Z,5.88
2022-11-13T01:08:01.007Z,5.85
2022-11-13T01:09:01.003Z,5.78
2022-11-13T01:10:01.014Z,5.86
2022-11-13T01:11:00.997Z,5.95
2022-11-13T01:12:00.986Z,5.86
2022-11-13T01:13:01.083Z,5.81
2022-11-13T01:14:00.972Z,6.07
2022-11-13T01:15:00.967Z,5.89
2022-11-13T01:16:00.990Z,5.78
2022-11-13T01:17:00.959Z,5.68
2022-11-13T01:18:00.947Z,5.53
2022-11-13T01:19:00.962Z,5.45
2022-11-13T01:20:00.950Z,5.27
2022-11-13T01:21:00.954Z,5.25
2022-11-13T01:22:00.951Z,5.32
2022-11-13T01:23:00.923Z,5.41
2022-11-13T01:24:00.913Z,5.27
2022-11-13T01:25:00.920Z,5.25
2022-11-13T01:26:00.910Z,5.19
2022-11-13T01:27:00.900Z,4.88
2022-11-13T01:28:00.918Z,4.57
2022-11-13T01:29:00.976Z,4.47
2022-11-13T01:30:00.877Z,4.54
2022-11-13T01:31:00.894Z,4.51
2022-11-13T01:32:00.883Z,4.80
2022-11-13T01:33:00.846Z,5.01
2022-11-13T01:34:00.869Z,5.07
2022-11-13T01:35:00.845Z,5.14
2022-11-13T01:36:00.841Z,5.14
2022-11-13T01:37:00.862Z,5.27
2022-11-13T01:38:00.833Z,5.28
2022-11-13T01:39:00.821Z,5.31
2022-11-13T01:40:00.867Z,5.41
2022-11-13T01:41:00.817Z,5.37
2022-11-13T01:42:00.813Z,5.40
2022-11-13T01:43:00.829Z,5.40
2022-11-13T01:44:00.814Z,5.23
2022-11-13T01:45:00.896Z,5.22
2022-11-13T01:46:00.818Z,5.07
2022-11-13T01:47:00.783Z,5.04
2022-11-13T01:48:00.805Z,4.96
2022-11-13T01:49:00.782Z,5.04
2022-11-13T01:50:00.766Z,5.07
2022-11-13T01:51:00.769Z,5.05
2022-11-13T01:52:00.784Z,4.96
2022-11-13T01:53:00.769Z,4.98
2022-11-13T01:54:00.754Z,4.96
2022-11-13T01:55:00.753Z,5.13
2022-11-13T01:56:00.729Z,5.10
2022-11-13T01:57:00.729Z,5.17
2022-11-13T01:58:00.745Z,5.20
2022-11-13T01:59:00.733Z,5.28
2022-11-13T02:00:00.714Z,5.23
2022-11-13T02:01:00.806Z,5.32
2022-11-13T02:02:00.768Z,5.20
2022-11-13T02:03:01.476Z,5.14
2022-11-13T02:04:00.717Z,5.07
2022-11-13T02:05:00.688Z,5.04
2022-11-13T02:06:00.674Z,5.05
2022-11-13T02:07:00.752Z,5.10
2022-11-13T02:08:00.669Z,5.16
2022-11-13T02:09:00.673Z,5.19
2022-11-13T02:10:00.689Z,5.13
2022-11-13T02:11:00.654Z,5.22
2022-11-13T02:12:00.655Z,5.31
2022-11-13T02:13:00.651Z,5.37
2022-11-13T02:14:00.635Z,5.32
2022-11-13T02:15:00.630Z,5.34
2022-11-13T02:16:00.654Z,5.45
2022-11-13T02:17:01.707Z,5.28
2022-11-13T02:18:00.614Z,5.22
2022-11-13T02:19:00.633Z,5.17
2022-11-13T02:20:00.585Z,5.23
2022-11-13T02:21:00.605Z,5.17
2022-11-13T02:22:00.604Z,5.10
2022-11-13T02:23:01.570Z,5.05
2022-11-13T02:24:00.571Z,4.96
2022-11-13T02:25:00.572Z,5.05
2022-11-13T02:26:00.604Z,4.88
2022-11-13T02:27:00.559Z,4.96
2022-11-13T02:28:00.554Z,5.07
2022-11-13T02:29:00.543Z,5.07
2022-11-13T02:30:00.555Z,4.96
2022-11-13T02:31:00.543Z,4.80
2022-11-13T02:32:00.539Z,4.76
2022-11-13T02:33:00.608Z,4.65
2022-11-13T02:34:00.528Z,4.62
2022-11-13T02:35:00.508Z,4.61
2022-11-13T02:36:00.519Z,4.55
2022-11-13T02:37:00.907Z,4.55
2022-11-13T02:38:00.520Z,4.72
2022-11-13T02:39:00.490Z,4.83
2022-11-13T02:40:00.511Z,4.86
2022-11-13T02:41:00.465Z,5.02
2022-11-13T02:42:00.468Z,5.16
2022-11-13T02:43:00.496Z,5.13
2022-11-13T02:44:00.458Z,5.22
2022-11-13T02:45:00.457Z,5.34
2022-11-13T02:46:00.470Z,5.23
2022-11-13T02:47:00.458Z,5.27
2022-11-13T02:48:00.442Z,5.32
2022-11-13T02:49:00.517Z,5.35
2022-11-13T02:50:00.453Z,5.28
2022-11-13T02:51:00.405Z,5.32
2022-11-13T02:52:00.405Z,5.32
2022-11-13T02:53:00.448Z,5.32
2022-11-13T02:54:00.422Z,5.34
2022-11-13T02:55:00.408Z,5.37
2022-11-13T02:56:00.490Z,5.34
2022-11-13T02:57:00.372Z,5.46
2022-11-13T02:58:00.369Z,5.35
2022-11-13T02:59:32.820Z,5.45
2022-11-13T03:00:00.359Z,5.41
2022-11-13T03:01:00.343Z,5.27
2022-11-13T03:02:01.409Z,5.20
2022-11-13T03:03:00.344Z,5.13
2022-11-13T03:04:00.336Z,5.13
2022-11-13T03:05:15.545Z,5.27
2022-11-13T03:06:02.324Z,5.27
2022-11-13T03:07:00.395Z,5.20
2022-11-13T03:08:00.314Z,5.14
2022-11-13T03:09:00.325Z,5.01
2022-11-13T03:10:00.504Z,4.89
2022-11-13T03:11:00.306Z,4.72
2022-11-13T03:12:00.297Z,4.67
2022-11-13T03:13:00.286Z,4.91
2022-11-13T03:14:00.286Z,4.80
2022-11-13T03:15:00.272Z,4.75
2022-11-13T03:16:00.297Z,4.73
2022-11-13T03:17:00.263Z,4.58
2022-11-13T03:18:00.257Z,4.51
2022-11-13T03:19:00.248Z,4.44
2022-11-13T03:20:00.270Z,4.43
2022-11-13T03:21:00.360Z,4.47
2022-11-13T03:22:00.260Z,4.44
2022-11-13T03:23:00.227Z,4.43
2022-11-13T03:24:00.224Z,4.34
2022-11-13T03:25:00.230Z,4.37
2022-11-13T03:26:00.224Z,4.39
2022-11-13T03:27:00.232Z,4.44
2022-11-13T03:28:00.216Z,4.52
2022-11-13T03:29:00.199Z,4.61
2022-11-13T03:30:00.997Z,4.51
2022-11-13T03:31:00.204Z,4.64
2022-11-13T03:32:00.208Z,4.64
2022-11-13T03:33:00.166Z,4.44
2022-11-13T03:34:00.172Z,4.40
2022-11-13T03:35:00.175Z,4.42
2022-11-13T03:36:00.152Z,4.40
2022-11-13T03:37:00.288Z,4.22
2022-11-13T03:38:00.179Z,4.08
2022-11-13T03:39:00.147Z,3.86
2022-11-13T03:40:00.164Z,3.80
2022-11-13T03:41:00.175Z,3.80
2022-11-13T03:42:00.144Z,3.78
2022-11-13T03:43:00.215Z,3.86
2022-11-13T03:44:00.109Z,3.98
2022-11-13T03:45:00.103Z,4.01
2022-11-13T03:46:00.115Z,4.10
2022-11-13T03:47:00.092Z,4.24
2022-11-13T03:48:00.092Z,4.37
2022-11-13T03:49:00.123Z,4.15
2022-11-13T03:50:00.086Z,4.16
2022-11-13T03:51:00.080Z,4.21
2022-11-13T03:52:00.070Z,4.18
2022-11-13T03:53:00.143Z,4.24
2022-11-13T03:54:00.061Z,4.25
2022-11-13T03:55:00.047Z,4.08
2022-11-13T03:56:00.029Z,4.15
2022-11-13T03:57:00.020Z,4.06
2022-11-13T03:58:00.030Z,4.21
2022-11-13T03:59:00.017Z,4.25
2022-11-13T04:00:00.026Z,4.44
2022-11-13T04:01:00.024Z,4.42
2022-11-13T04:02:00.054Z,4.44
2022-11-13T04:03:00.010Z,4.42
2022-11-13T04:03:59.982Z,4.39
2022-11-13T04:04:59.975Z,4.37
2022-11-13T04:05:59.982Z,4.50
2022-11-13T04:07:00.026Z,4.42
2022-11-13T04:07:59.958Z,4.57
2022-11-13T04:09:00.048Z,4.50
2022-11-13T04:09:59.971Z,4.55
2022-11-13T04:10:59.925Z,4.47
2022-11-13T04:11:59.938Z,4.33
2022-11-13T04:12:59.926Z,4.28
2022-11-13T04:13:59.921Z,4.40
2022-11-13T04:14:59.921Z,4.25
2022-11-13T04:15:59.921Z,4.16
2022-11-13T04:16:59.908Z,4.22
2022-11-13T04:17:59.906Z,3.98
2022-11-13T04:18:59.896Z,4.00
2022-11-13T04:19:59.918Z,3.89
2022-11-13T04:20:59.935Z,3.94
2022-11-13T04:21:59.987Z,3.90
2022-11-13T04:22:59.950Z,3.89
2022-11-13T04:23:59.875Z,3.96
2022-11-13T04:24:59.947Z,3.85
2022-11-13T04:25:59.851Z,3.68
2022-11-13T04:26:59.857Z,3.68
2022-11-13T04:27:59.858Z,3.68
2022-11-13T04:28:59.870Z,3.57
2022-11-13T04:29:59.853Z,3.46
2022-11-13T04:30:59.843Z,3.34
2022-11-13T04:31:59.869Z,3.39
2022-11-13T04:32:59.824Z,3.40
2022-11-13T04:33:59.804Z,3.57
2022-11-13T04:34:59.809Z,3.60
2022-11-13T04:35:59.800Z,3.68
2022-11-13T04:36:59.787Z,3.72
2022-11-13T04:37:59.812Z,3.85
2022-11-13T04:38:59.784Z,3.96
2022-11-13T04:39:59.788Z,4.00
2022-11-13T04:40:59.879Z,4.15
2022-11-13T04:41:59.803Z,4.28
2022-11-13T04:42:59.787Z,4.39
2022-11-13T04:43:59.765Z,4.39
2022-11-13T04:44:59.748Z,4.39
2022-11-13T04:45:59.786Z,4.47
2022-11-13T04:46:59.731Z,4.51
2022-11-13T04:47:59.742Z,4.43
2022-11-13T04:48:59.793Z,4.51
2022-11-13T04:49:59.750Z,4.40
2022-11-13T04:50:59.720Z,4.47
2022-11-13T04:51:59.692Z,4.57
2022-11-13T04:52:59.774Z,4.54
2022-11-13T04:53:59.685Z,4.55
2022-11-13T04:54:59.709Z,4.52
2022-11-13T04:56:00.442Z,4.54
2022-11-13T04:56:59.769Z,4.42
2022-11-13T04:57:59.654Z,4.01
2022-11-13T04:58:59.671Z,3.54
2022-11-13T04:59:59.671Z,3.23
2022-11-13T05:00:59.687Z,3.34
2022-11-13T05:01:59.693Z,3.27
2022-11-13T05:02:59.648Z,3.31
2022-11-13T05:03:59.653Z,3.33
2022-11-13T05:05:04.724Z,3.27
2022-11-13T05:06:01.647Z,3.15
2022-11-13T05:06:59.641Z,3.18
2022-11-13T05:07:59.617Z,3.12
2022-11-13T05:08:59.606Z,3.16
2022-11-13T05:09:59.598Z,3.18
2022-11-13T05:10:59.607Z,3.12
2022-11-13T05:11:59.582Z,3.10
2022-11-13T05:12:59.690Z,2.98
2022-11-13T05:14:03.482Z,2.88
2022-11-13T05:15:00.565Z,3.09
2022-11-13T05:15:59.568Z,3.09
2022-11-13T05:16:59.555Z,3.18
2022-11-13T05:17:59.560Z,3.31
2022-11-13T05:18:59.566Z,3.16
2022-11-13T05:19:59.526Z,3.24
2022-11-13T05:20:59.535Z,3.16
2022-11-13T05:21:59.523Z,3.25
2022-11-13T05:22:59.523Z,3.42
2022-11-13T05:23:59.538Z,3.52
2022-11-13T05:24:59.522Z,3.53
2022-11-13T05:25:59.489Z,3.76
2022-11-13T05:26:59.490Z,3.85
2022-11-13T05:27:59.554Z,4.01
2022-11-13T05:28:59.577Z,4.06
2022-11-13T05:29:59.466Z,4.15
2022-11-13T05:30:59.458Z,4.33
2022-11-13T05:31:59.458Z,4.14
2022-11-13T05:32:59.488Z,4.24
2022-11-13T05:34:05.328Z,4.19
2022-11-13T05:35:01.479Z,4.18
2022-11-13T05:35:59.463Z,4.32
2022-11-13T05:36:59.430Z,4.19
2022-11-13T05:37:59.414Z,4.00
2022-11-13T05:38:59.420Z,3.89
2022-11-13T05:39:59.454Z,3.67
2022-11-13T05:40:59.412Z,3.54
2022-11-13T05:41:59.407Z,3.47
2022-11-13T05:42:59.405Z,3.62
2022-11-13T05:43:59.946Z,3.61
2022-11-13T05:45:00.493Z,3.79
2022-11-13T05:45:59.395Z,3.86
2022-11-13T05:46:59.389Z,3.97
2022-11-13T05:47:59.383Z,4.04
2022-11-13T05:48:59.373Z,4.08
2022-11-13T05:49:59.366Z,4.06
2022-11-13T05:50:59.384Z,4.19
2022-11-13T05:51:59.350Z,4.06
2022-11-13T05:52:59.342Z,3.98
2022-11-13T05:53:59.338Z,4.06
2022-11-13T05:54:59.334Z,4.04
2022-11-13T05:55:59.323Z,4.18
2022-11-13T05:56:59.349Z,4.14
2022-11-13T05:57:59.322Z,3.89
2022-11-13T05:58:59.306Z,4.00
2022-11-13T05:59:59.374Z,3.94
2022-11-13T06:00:59.390Z,4.06
2022-11-13T06:01:59.357Z,4.08
2022-11-13T06:02:59.288Z,4.04
2022-11-13T06:03:59.285Z,4.07
2022-11-13T06:04:59.271Z,3.88
2022-11-13T06:05:59.267Z,3.92
2022-11-13T06:06:59.354Z,3.96
2022-11-13T06:07:59.263Z,4.01
2022-11-13T06:08:59.266Z,4.06
2022-11-13T06:09:59.250Z,4.15
2022-11-13T06:10:59.255Z,4.22
2022-11-13T06:11:59.254Z,4.16
2022-11-13T06:12:59.226Z,4.33
2022-11-13T06:13:59.230Z,4.29
2022-11-13T06:14:59.215Z,4.24
2022-11-13T06:15:59.207Z,4.04
2022-11-13T06:16:59.313Z,3.85
2022-11-13T06:17:59.199Z,3.80
2022-11-13T06:18:59.208Z,3.89
2022-11-13T06:19:59.202Z,4.00
2022-11-13T06:20:59.172Z,4.01
2022-11-13T06:21:59.190Z,4.19
2022-11-13T06:22:59.159Z,4.14
2022-11-13T06:23:59.220Z,4.15
2022-11-13T06:24:59.177Z,4.10
2022-11-13T06:25:59.182Z,4.08
2022-11-13T06:26:59.145Z,3.76
2022-11-13T06:27:59.150Z,3.52
2022-11-13T06:28:59.141Z,3.49
2022-11-13T06:29:59.160Z,3.64
2022-11-13T06:30:59.129Z,3.61
2022-11-13T06:31:59.116Z,3.52
2022-11-13T06:32:59.213Z,3.54
2022-11-13T06:33:59.136Z,3.62
2022-11-13T06:34:59.113Z,3.58
2022-11-13T06:35:59.104Z,3.65
2022-11-13T06:37:01.668Z,3.50
2022-11-13T06:37:59.090Z,3.24
2022-11-13T06:38:59.189Z,3.03
2022-11-13T06:39:59.082Z,2.82
2022-11-13T06:40:59.107Z,2.87
2022-11-13T06:41:59.055Z,2.79
2022-11-13T06:42:59.050Z,2.85
2022-11-13T06:44:02.764Z,2.88
2022-11-13T06:45:00.051Z,2.97
2022-11-13T06:45:59.066Z,2.95
2022-11-13T06:46:59.035Z,3.06
2022-11-13T06:47:59.020Z,3.09
2022-11-13T06:48:59.098Z,3.24
2022-11-13T06:49:59.003Z,3.34
2022-11-13T06:50:59.015Z,3.36
2022-11-13T06:51:59.042Z,3.30
2022-11-13T06:52:58.997Z,3.27
2022-11-13T06:53:58.998Z,3.30
2022-11-13T06:54:59.005Z,3.36
2022-11-13T06:55:58.970Z,3.50
2022-11-13T06:56:58.963Z,3.57
2022-11-13T06:57:58.996Z,3.62
2022-11-13T06:58:58.954Z,3.50
2022-11-13T06:59:58.950Z,3.49
2022-11-13T07:00:59.127Z,3.53
2022-11-13T07:01:58.932Z,3.72
2022-11-13T07:02:58.942Z,3.71
2022-11-13T07:03:58.926Z,3.67
2022-11-13T07:04:59.001Z,3.97
2022-11-13T07:05:58.910Z,3.83
2022-11-13T07:06:59.498Z,3.90
2022-11-13T07:07:58.922Z,3.85
2022-11-13T07:08:58.938Z,3.70
2022-11-13T07:09:58.878Z,3.83
2022-11-13T07:10:58.879Z,3.86
2022-11-13T07:11:58.875Z,3.90
2022-11-13T07:12:58.880Z,3.83
2022-11-13T07:13:58.847Z,3.83
2022-11-13T07:14:58.866Z,3.60
2022-11-13T07:15:58.860Z,3.70
2022-11-13T07:17:09.645Z,3.78
2022-11-13T07:18:00.850Z,3.80
2022-11-13T07:18:58.878Z,3.82
2022-11-13T07:19:58.834Z,3.86
2022-11-13T07:20:58.943Z,3.97
2022-11-13T07:21:58.802Z,4.24
2022-11-13T07:22:58.811Z,4.25
2022-11-13T07:23:58.798Z,4.33
2022-11-13T07:24:58.781Z,4.26
2022-11-13T07:25:58.802Z,4.33
2022-11-13T07:26:58.834Z,4.28
2022-11-13T07:27:58.778Z,4.33
2022-11-13T07:28:58.761Z,4.46
2022-11-13T07:30:03.373Z,4.57
2022-11-13T07:31:00.769Z,4.59
2022-11-13T07:31:58.817Z,4.70
2022-11-13T07:32:58.753Z,4.65
2022-11-13T07:33:58.834Z,4.70
2022-11-13T07:34:58.726Z,4.62
2022-11-13T07:35:58.718Z,4.70
2022-11-13T07:36:58.814Z,4.76
2022-11-13T07:37:58.726Z,4.86
2022-11-13T07:39:00.339Z,4.77
2022-11-13T07:39:59.718Z,4.73
2022-11-13T07:40:58.698Z,4.55
2022-11-13T07:41:58.703Z,4.72
2022-11-13T07:42:58.690Z,4.61
2022-11-13T07:43:58.685Z,4.58
2022-11-13T07:44:58.662Z,4.67
2022-11-13T07:45:58.678Z,4.70
2022-11-13T07:46:58.658Z,4.70
2022-11-13T07:47:58.854Z,4.95
2022-11-13T07:48:58.651Z,4.88
2022-11-13T07:50:05.640Z,4.79
2022-11-13T07:51:00.640Z,4.95
2022-11-13T07:51:58.649Z,4.95
2022-11-13T07:52:58.769Z,5.17
2022-11-13T07:53:58.703Z,5.25
2022-11-13T07:54:58.616Z,5.09
2022-11-13T07:55:58.651Z,5.07
2022-11-13T07:56:58.606Z,4.79
2022-11-13T07:57:58.605Z,4.51
2022-11-13T07:58:58.610Z,4.40
2022-11-13T07:59:58.586Z,4.24
2022-11-13T08:00:58.712Z,4.15
2022-11-13T08:01:59.601Z,3.96
2022-11-13T08:02:58.578Z,3.92
2022-11-13T08:03:58.578Z,4.01
2022-11-13T08:04:58.560Z,4.21
2022-11-13T08:05:58.552Z,4.43
2022-11-13T08:06:58.594Z,4.43
2022-11-13T08:07:58.548Z,4.52
2022-11-13T08:08:58.628Z,4.47
2022-11-13T08:09:58.534Z,4.10
2022-11-13T08:10:58.539Z,4.16
2022-11-13T08:11:58.577Z,4.39
2022-11-13T08:12:58.537Z,4.52
2022-11-13T08:13:58.505Z,4.52
2022-11-13T08:14:58.521Z,4.32
2022-11-13T08:15:58.508Z,4.08
2022-11-13T08:16:58.532Z,4.21
2022-11-13T08:17:58.486Z,4.54
2022-11-13T08:18:58.480Z,4.57
2022-11-13T08:19:58.485Z,4.55
2022-11-13T08:20:58.500Z,4.46
2022-11-13T08:21:58.456Z,4.58
2022-11-13T08:22:58.449Z,4.75
2022-11-13T08:23:58.459Z,4.95
2022-11-13T08:24:58.546Z,4.99
2022-11-13T08:25:58.454Z,5.13
2022-11-13T08:26:58.449Z,5.31
2022-11-13T08:27:58.421Z,5.32
2022-11-13T08:28:58.417Z,5.13
2022-11-13T08:29:58.416Z,5.02
2022-11-13T08:30:58.406Z,4.84
2022-11-13T08:31:58.420Z,4.98
2022-11-13T08:32:58.392Z,5.09
2022-11-13T08:33:58.398Z,5.14
2022-11-13T08:34:58.372Z,5.32
2022-11-13T08:35:58.405Z,5.30
2022-11-13T08:36:58.360Z,5.32
2022-11-13T08:37:58.366Z,5.37
2022-11-13T08:38:58.372Z,5.28
2022-11-13T08:39:58.353Z,5.27
2022-11-13T08:40:58.449Z,5.23
2022-11-13T08:41:58.337Z,5.31
2022-11-13T08:42:58.378Z,5.35
2022-11-13T08:43:58.335Z,5.25
2022-11-13T08:44:58.342Z,5.10
2022-11-13T08:45:58.318Z,5.30
2022-11-13T08:46:58.337Z,5.22
2022-11-13T08:47:58.315Z,5.37
2022-11-13T08:48:58.306Z,5.35
2022-11-13T08:49:58.298Z,5.43
2022-11-13T08:50:58.304Z,5.37
2022-11-13T08:51:58.297Z,5.59
2022-11-13T08:52:58.286Z,5.64
2022-11-13T08:53:58.273Z,5.89
2022-11-13T08:54:58.275Z,6.04
2022-11-13T08:55:58.258Z,5.96
2022-11-13T08:57:03.291Z,5.93
2022-11-13T08:58:00.281Z,5.85
2022-11-13T08:59:31.692Z,6.13
2022-11-13T08:59:58.229Z,6.28
2022-11-13T09:00:58.219Z,5.63
2022-11-13T09:01:58.228Z,5.59
2022-11-13T09:02:58.252Z,5.78
2022-11-13T09:03:58.261Z,5.83
2022-11-13T09:04:58.201Z,6.04
2022-11-13T09:05:58.227Z,6.38
2022-11-13T09:06:58.270Z,6.35
2022-11-13T09:07:58.240Z,5.89
2022-11-13T09:08:58.193Z,5.55
2022-11-13T09:09:58.188Z,5.32
2022-11-13T09:10:58.185Z,5.31
2022-11-13T09:11:58.161Z,5.12
2022-11-13T09:12:58.342Z,4.98
2022-11-13T09:13:58.148Z,4.43
2022-11-13T09:14:58.155Z,4.46
2022-11-13T09:15:58.145Z,4.55
2022-11-13T09:16:58.155Z,4.89
2022-11-13T09:17:58.134Z,4.88
2022-11-13T09:18:58.159Z,4.92
2022-11-13T09:20:02.270Z,5.12
2022-11-13T09:21:00.143Z,5.25
2022-11-13T09:21:58.120Z,5.34
2022-11-13T09:22:58.156Z,5.56
2022-11-13T09:23:58.183Z,5.60
2022-11-13T09:24:58.110Z,5.73
2022-11-13T09:25:58.127Z,5.96
2022-11-13T09:26:58.133Z,6.09
2022-11-13T09:27:58.085Z,6.01
2022-11-13T09:28:58.163Z,6.00
2022-11-13T09:29:58.160Z,6.13
2022-11-13T09:30:58.993Z,6.30
2022-11-13T09:31:58.958Z,6.61
2022-11-13T09:32:58.050Z,6.46
2022-11-13T09:33:58.075Z,6.54
2022-11-13T09:34:58.062Z,6.25
2022-11-13T09:35:58.037Z,6.09
2022-11-13T09:36:58.052Z,5.89
2022-11-13T09:37:58.046Z,5.77
2022-11-13T09:38:58.021Z,5.86
2022-11-13T09:39:58.043Z,6.09
2022-11-13T09:40:58.014Z,5.96
2022-11-13T09:41:58.483Z,6.40
2022-11-13T09:42:57.975Z,6.51
2022-11-13T09:44:00.045Z,6.98
2022-11-13T09:44:59.065Z,7.42
2022-11-13T09:45:58.213Z,7.92
2022-11-13T09:46:58.005Z,8.00
2022-11-13T09:47:58.004Z,8.18
2022-11-13T09:48:58.048Z,7.97
2022-11-13T09:49:57.984Z,8.03
2022-11-13T09:50:57.956Z,8.20
2022-11-13T09:51:59.810Z,8.40
2022-11-13T09:52:57.964Z,8.75
2022-11-13T09:53:57.960Z,8.72
2022-11-13T09:54:58.030Z,8.66
2022-11-13T09:55:57.933Z,8.45
2022-11-13T09:56:57.980Z,7.96
2022-11-13T09:57:57.973Z,7.56
2022-11-13T09:58:57.930Z,7.69
2022-11-13T09:59:57.876Z,8.30
2022-11-13T10:00:58.214Z,8.72
2022-11-13T10:01:57.913Z,9.05
2022-11-13T10:02:57.967Z,9.28
2022-11-13T10:04:03.915Z,9.56
2022-11-13T10:04:59.952Z,9.67
2022-11-13T10:05:57.863Z,9.57
2022-11-13T10:06:57.985Z,9.61
2022-11-13T10:07:57.930Z,9.35
2022-11-13T10:08:57.971Z,8.45
2022-11-13T10:09:57.882Z,8.57
2022-11-13T10:10:57.878Z,8.40
2022-11-13T10:11:57.908Z,8.50
2022-11-13T10:12:57.834Z,7.90
2022-11-13T10:13:57.881Z,7.87
2022-11-13T10:14:57.892Z,8.11
2022-11-13T10:15:57.822Z,8.36
2022-11-13T10:16:57.918Z,8.66
2022-11-13T10:17:57.872Z,9.06
2022-11-13T10:18:57.792Z,8.91
2022-11-13T10:19:57.796Z,9.12
2022-11-13T10:20:58.007Z,9.18
2022-11-13T10:22:07.769Z,9.20
2022-11-13T10:22:59.748Z,9.25
2022-11-13T10:23:57.788Z,9.23
2022-11-13T10:24:57.799Z,9.27
2022-11-13T10:25:57.737Z,9.10
2022-11-13T10:26:57.764Z,9.49
2022-11-13T10:27:57.839Z,9.76
2022-11-13T10:28:57.793Z,10.44
2022-11-13T10:29:57.726Z,10.74
2022-11-13T10:30:57.755Z,10.73
2022-11-13T10:31:57.704Z,10.89
2022-11-13T10:32:57.831Z,11.47
2022-11-13T10:33:57.727Z,11.85
2022-11-13T10:34:57.698Z,12.26
2022-11-13T10:35:57.695Z,13.30
2022-11-13T10:36:57.679Z,14.17
2022-11-13T10:37:57.700Z,14.21
2022-11-13T10:38:57.731Z,14.65
2022-11-13T10:39:57.669Z,15.42
2022-11-13T10:40:57.651Z,16.65
2022-11-13T10:41:57.642Z,15.97
2022-11-13T10:42:57.612Z,15.51
2022-11-13T10:43:58.443Z,15.57
2022-11-13T10:44:57.604Z,14.84
2022-11-13T10:45:57.587Z,14.95
2022-11-13T10:46:57.604Z,15.01
2022-11-13T10:48:04.311Z,15.84
2022-11-13T10:48:59.730Z,16.25
2022-11-13T10:49:57.609Z,17.04
2022-11-13T10:50:57.645Z,18.00
2022-11-13T10:51:57.607Z,18.02
2022-11-13T10:52:57.612Z,17.89
2022-11-13T10:53:57.580Z,18.55
2022-11-13T10:54:57.629Z,18.76
2022-11-13T10:55:57.609Z,19.53
2022-11-13T10:56:57.601Z,20.23
2022-11-13T10:57:57.568Z,21.09
2022-11-13T10:58:57.557Z,20.89
2022-11-13T10:59:57.600Z,20.71
2022-11-13T11:00:57.633Z,20.41
2022-11-13T11:01:57.534Z,20.20
2022-11-13T11:02:57.519Z,19.73
2022-11-13T11:03:57.506Z,18.94
2022-11-13T11:04:57.600Z,18.99
2022-11-13T11:05:57.548Z,18.57
2022-11-13T11:07:18.974Z,18.94
2022-11-13T11:07:59.557Z,19.24
2022-11-13T11:08:57.477Z,19.15
2022-11-13T11:09:57.479Z,19.42
2022-11-13T11:10:57.506Z,19.65
2022-11-13T11:11:57.456Z,19.42
2022-11-13T11:12:57.483Z,19.28
2022-11-13T11:13:57.477Z,19.90
2022-11-13T11:14:57.524Z,19.72
2022-11-13T11:15:57.473Z,19.13
2022-11-13T11:16:57.440Z,19.20
2022-11-13T11:17:57.450Z,20.09
2022-11-13T11:18:57.432Z,19.50
2022-11-13T11:19:57.411Z,19.54
2022-11-13T11:20:57.517Z,18.94
2022-11-13T11:21:57.403Z,18.02
2022-11-13T11:22:57.402Z,17.50
2022-11-13T11:23:57.432Z,17.26
2022-11-13T11:24:57.398Z,17.22
2022-11-13T11:25:57.394Z,17.28
2022-11-13T11:26:57.415Z,17.55
2022-11-13T11:27:57.391Z,17.55
2022-11-13T11:28:57.423Z,17.55
2022-11-13T11:29:57.380Z,17.88
2022-11-13T11:30:57.349Z,18.19
2022-11-13T11:31:57.356Z,17.91
2022-11-13T11:32:57.369Z,18.33
2022-11-13T11:33:57.435Z,17.67
2022-11-13T11:34:59.279Z,17.87
2022-11-13T11:35:58.382Z,18.62
2022-11-13T11:36:57.502Z,18.42
2022-11-13T11:37:57.368Z,17.57
2022-11-13T11:38:57.410Z,16.92
2022-11-13T11:39:57.342Z,15.64
2022-11-13T11:40:57.329Z,15.21
2022-11-13T11:41:57.337Z,16.06
2022-11-13T11:42:58.315Z,17.66
2022-11-13T11:43:57.328Z,18.25
2022-11-13T11:44:57.482Z,18.06
2022-11-13T11:45:57.301Z,18.04
2022-11-13T11:46:57.441Z,17.88
2022-11-13T11:47:57.296Z,18.10
2022-11-13T11:48:57.304Z,18.59
2022-11-13T11:49:58.331Z,18.52
2022-11-13T11:50:58.036Z,19.33
2022-11-13T11:51:57.327Z,19.70
2022-11-13T11:52:57.358Z,20.02
2022-11-13T11:53:57.291Z,20.00
2022-11-13T11:54:58.035Z,20.49
2022-11-13T11:55:57.303Z,20.96
2022-11-13T11:56:57.342Z,21.46
2022-11-13T11:57:57.246Z,21.09
2022-11-13T11:58:57.262Z,21.48
2022-11-13T11:59:57.997Z,20.56
2022-11-13T12:00:58.014Z,19.76
2022-11-13T12:01:57.259Z,19.90
2022-11-13T12:02:57.250Z,19.55
2022-11-13T12:03:57.221Z,18.58
2022-11-13T12:04:57.362Z,17.53
2022-11-13T12:05:57.259Z,16.96
2022-11-13T12:06:57.288Z,16.18
2022-11-13T12:07:57.231Z,15.49
2022-11-13T12:08:57.301Z,15.01
2022-11-13T12:09:57.183Z,14.39
2022-11-13T12:10:57.262Z,13.76
2022-11-13T12:11:57.193Z,13.40
2022-11-13T12:12:57.273Z,13.07
2022-11-13T12:13:57.165Z,13.11
2022-11-13T12:14:58.031Z,13.00
2022-11-13T12:15:57.187Z,13.07
2022-11-13T12:16:57.158Z,12.69
2022-11-13T12:17:57.305Z,12.41
2022-11-13T12:18:57.179Z,12.54
2022-11-13T12:19:57.134Z,12.51
2022-11-13T12:20:57.144Z,12.62
2022-11-13T12:21:57.157Z,12.46
2022-11-13T12:22:57.101Z,12.42
2022-11-13T12:23:57.274Z,12.27
2022-11-13T12:24:57.210Z,12.41
2022-11-13T12:25:57.117Z,12.57
2022-11-13T12:26:57.149Z,12.63
2022-11-13T12:27:57.102Z,12.41
2022-11-13T12:28:57.082Z,12.41
2022-11-13T12:29:57.074Z,12.79
2022-11-13T12:30:57.078Z,12.78
2022-11-13T12:31:57.092Z,12.63
2022-11-13T12:32:57.062Z,12.63
2022-11-13T12:34:01.288Z,12.44
2022-11-13T12:34:58.042Z,12.45
2022-11-13T12:35:57.086Z,12.71
2022-11-13T12:36:57.058Z,12.96
2022-11-13T12:37:57.073Z,12.69
2022-11-13T12:38:57.061Z,12.64
2022-11-13T12:39:57.062Z,12.46
2022-11-13T12:40:57.092Z,12.49
2022-11-13T12:41:57.015Z,12.64
2022-11-13T12:42:57.013Z,13.07
2022-11-13T12:43:56.993Z,12.99
2022-11-13T12:44:57.001Z,12.77
2022-11-13T12:45:56.962Z,12.67
2022-11-13T12:46:56.977Z,13.02
2022-11-13T12:47:56.986Z,12.89
2022-11-13T12:48:56.970Z,12.89
2022-11-13T12:49:56.969Z,12.97
2022-11-13T12:50:56.985Z,12.89
2022-11-13T12:51:56.952Z,12.77
2022-11-13T12:52:56.932Z,12.67
2022-11-13T12:53:56.948Z,12.77
2022-11-13T12:54:56.954Z,13.04
2022-11-13T12:55:56.946Z,13.15
2022-11-13T12:56:56.980Z,12.96
2022-11-13T12:57:56.948Z,12.97
2022-11-13T12:59:23.771Z,12.97
2022-11-13T12:59:58.916Z,13.24
2022-11-13T13:00:57.035Z,13.47
2022-11-13T13:01:56.877Z,13.54
2022-11-13T13:02:56.865Z,13.52
2022-11-13T13:03:56.868Z,13.71
2022-11-13T13:04:56.865Z,13.74
2022-11-13T13:05:56.884Z,13.61
2022-11-13T13:06:56.893Z,13.37
2022-11-13T13:07:59.796Z,13.37
2022-11-13T13:08:57.832Z,13.70
2022-11-13T13:09:56.817Z,13.70
2022-11-13T13:10:56.836Z,13.61
2022-11-13T13:11:57.845Z,13.63